sensor_id;sensor_type;location;lat;lon;timestamp;P1;durP1;ratioP1;P2;durP2;ratioP2
30380;SDS011;17169;50.966;11.038;2022-10-16T00:02:47;1.15;;;0.60;;
30380;SDS011;17169;50.966;11.038;2022-10-16T00:05:51;1.20;;;0.82;;
30380;SDS011;17169;50.966;11.038;2022-10-16T00:08:53;1.08;;;0.55;;
30380;SDS011;17169;50.966;11.038;2022-10-16T00:11:56;2.60;;;0.70;;
30380;SDS011;17169;50.966;11.038;2022-10-16T00:14:58;2.00;;;0.75;;
30380;SDS011;17169;50.966;11.038;2022-10-16T00:18:00;1.83;;;0.95;;
30380;SDS011;17169;50.966;11.038;2022-10-16T00:21:05;1.00;;;0.70;;
30380;SDS011;17169;50.966;11.038;2022-10-16T00:24:09;4.00;;;1.23;;
30380;SDS011;17169;50.966;11.038;2022-10-16T00:27:12;4.65;;;1.00;;
30380;SDS011;17169;50.966;11.038;2022-10-16T00:30:15;1.45;;;0.90;;
30380;SDS011;17169;50.966;11.038;2022-10-16T00:33:17;3.13;;;1.00;;
30380;SDS011;17169;50.966;11.038;2022-10-16T00:36:21;1.27;;;0.77;;
30380;SDS011;17169;50.966;11.038;2022-10-16T00:42:27;1.80;;;0.70;;
30380;SDS011;17169;50.966;11.038;2022-10-16T00:45:29;4.75;;;0.70;;
30380;SDS011;17169;50.966;11.038;2022-10-16T00:48:31;3.65;;;0.70;;
30380;SDS011;17169;50.966;11.038;2022-10-16T00:51:37;1.55;;;0.80;;
30380;SDS011;17169;50.966;11.038;2022-10-16T00:54:42;3.10;;;0.75;;
30380;SDS011;17169;50.966;11.038;2022-10-16T00:57:44;0.73;;;0.68;;
30380;SDS011;17169;50.966;11.038;2022-10-16T01:00:47;1.52;;;0.68;;
30380;SDS011;17169;50.966;11.038;2022-10-16T01:03:49;3.00;;;0.63;;
30380;SDS011;17169;50.966;11.038;2022-10-16T01:06:56;1.27;;;0.73;;
30380;SDS011;17169;50.966;11.038;2022-10-16T01:10:06;2.30;;;0.75;;
30380;SDS011;17169;50.966;11.038;2022-10-16T01:13:15;0.98;;;0.68;;
30380;SDS011;17169;50.966;11.038;2022-10-16T01:16:24;1.00;;;0.68;;
30380;SDS011;17169;50.966;11.038;2022-10-16T01:19:44;1.73;;;0.90;;
30380;SDS011;17169;50.966;11.038;2022-10-16T01:23:06;2.40;;;0.60;;
30380;SDS011;17169;50.966;11.038;2022-10-16T01:26:20;1.38;;;0.80;;
30380;SDS011;17169;50.966;11.038;2022-10-16T01:29:36;3.00;;;0.88;;
30380;SDS011;17169;50.966;11.038;2022-10-16T01:32:43;1.80;;;0.82;;
30380;SDS011;17169;50.966;11.038;2022-10-16T01:35:51;1.50;;;0.90;;
30380;SDS011;17169;50.966;11.038;2022-10-16T01:38:58;1.73;;;1.20;;
30380;SDS011;17169;50.966;11.038;2022-10-16T01:42:04;1.67;;;0.80;;
30380;SDS011;17169;50.966;11.038;2022-10-16T01:45:12;2.03;;;0.85;;
30380;SDS011;17169;50.966;11.038;2022-10-16T01:48:19;2.97;;;0.90;;
30380;SDS011;17169;50.966;11.038;2022-10-16T01:51:23;1.08;;;0.80;;
30380;SDS011;17169;50.966;11.038;2022-10-16T01:54:27;1.65;;;0.82;;
30380;SDS011;17169;50.966;11.038;2022-10-16T01:57:32;0.80;;;0.80;;
30380;SDS011;17169;50.966;11.038;2022-10-16T02:00:40;2.33;;;0.93;;
30380;SDS011;17169;50.966;11.038;2022-10-16T02:03:45;1.45;;;0.85;;
30380;SDS011;17169;50.966;11.038;2022-10-16T02:06:51;1.05;;;0.80;;
30380;SDS011;17169;50.966;11.038;2022-10-16T02:09:54;2.20;;;0.80;;
30380;SDS011;17169;50.966;11.038;2022-10-16T02:12:58;1.98;;;0.82;;
30380;SDS011;17169;50.966;11.038;2022-10-16T02:16:05;0.80;;;0.70;;
30380;SDS011;17169;50.966;11.038;2022-10-16T02:19:08;1.92;;;0.80;;
30380;SDS011;17169;50.966;11.038;2022-10-16T02:22:12;1.58;;;0.82;;
30380;SDS011;17169;50.966;11.038;2022-10-16T02:25:19;3.20;;;0.85;;
30380;SDS011;17169;50.966;11.038;2022-10-16T02:28:27;1.70;;;0.90;;
30380;SDS011;17169;50.966;11.038;2022-10-16T02:31:38;1.63;;;0.80;;
30380;SDS011;17169;50.966;11.038;2022-10-16T02:34:45;4.32;;;0.70;;
30380;SDS011;17169;50.966;11.038;2022-10-16T02:37:50;2.40;;;1.00;;
30380;SDS011;17169;50.966;11.038;2022-10-16T02:40:54;0.98;;;0.80;;
30380;SDS011;17169;50.966;11.038;2022-10-16T02:43:56;1.15;;;0.77;;
30380;SDS011;17169;50.966;11.038;2022-10-16T02:47:00;1.33;;;0.85;;
30380;SDS011;17169;50.966;11.038;2022-10-16T02:50:03;6.78;;;0.95;;
30380;SDS011;17169;50.966;11.038;2022-10-16T02:53:06;1.10;;;0.80;;
30380;SDS011;17169;50.966;11.038;2022-10-16T02:56:08;4.13;;;0.90;;
30380;SDS011;17169;50.966;11.038;2022-10-16T02:59:11;1.20;;;0.82;;
30380;SDS011;17169;50.966;11.038;2022-10-16T03:02:14;1.08;;;0.75;;
30380;SDS011;17169;50.966;11.038;2022-10-16T03:05:17;1.10;;;0.80;;
30380;SDS011;17169;50.966;11.038;2022-10-16T03:08:19;0.75;;;0.60;;
30380;SDS011;17169;50.966;11.038;2022-10-16T03:11:24;1.17;;;0.80;;
30380;SDS011;17169;50.966;11.038;2022-10-16T03:14:26;1.30;;;0.90;;
30380;SDS011;17169;50.966;11.038;2022-10-16T03:17:31;1.58;;;0.90;;
30380;SDS011;17169;50.966;11.038;2022-10-16T03:20:33;3.33;;;0.90;;
30380;SDS011;17169;50.966;11.038;2022-10-16T03:23:36;1.50;;;0.90;;
30380;SDS011;17169;50.966;11.038;2022-10-16T03:26:38;2.20;;;1.00;;
30380;SDS011;17169;50.966;11.038;2022-10-16T03:29:40;4.43;;;0.93;;
30380;SDS011;17169;50.966;11.038;2022-10-16T03:32:44;1.52;;;1.02;;
30380;SDS011;17169;50.966;11.038;2022-10-16T03:35:50;1.40;;;0.95;;
30380;SDS011;17169;50.966;11.038;2022-10-16T03:38:53;1.55;;;1.00;;
30380;SDS011;17169;50.966;11.038;2022-10-16T03:41:56;1.30;;;1.00;;
30380;SDS011;17169;50.966;11.038;2022-10-16T03:44:58;1.70;;;0.82;;
30380;SDS011;17169;50.966;11.038;2022-10-16T03:48:02;2.35;;;0.88;;
30380;SDS011;17169;50.966;11.038;2022-10-16T03:51:04;1.73;;;1.00;;
30380;SDS011;17169;50.966;11.038;2022-10-16T03:54:07;1.88;;;0.93;;
30380;SDS011;17169;50.966;11.038;2022-10-16T03:57:11;1.77;;;0.93;;
30380;SDS011;17169;50.966;11.038;2022-10-16T04:00:13;1.90;;;1.17;;
30380;SDS011;17169;50.966;11.038;2022-10-16T04:03:17;2.28;;;1.00;;
30380;SDS011;17169;50.966;11.038;2022-10-16T04:06:19;3.85;;;1.08;;
30380;SDS011;17169;50.966;11.038;2022-10-16T04:09:22;1.17;;;1.00;;
30380;SDS011;17169;50.966;11.038;2022-10-16T04:12:24;1.75;;;1.17;;
30380;SDS011;17169;50.966;11.038;2022-10-16T04:15:26;4.68;;;1.20;;
30380;SDS011;17169;50.966;11.038;2022-10-16T04:18:30;1.48;;;1.00;;
30380;SDS011;17169;50.966;11.038;2022-10-16T04:21:32;3.38;;;0.82;;
30380;SDS011;17169;50.966;11.038;2022-10-16T04:24:35;3.75;;;1.10;;
30380;SDS011;17169;50.966;11.038;2022-10-16T04:27:37;2.60;;;1.30;;
30380;SDS011;17169;50.966;11.038;2022-10-16T04:30:40;1.65;;;1.20;;
30380;SDS011;17169;50.966;11.038;2022-10-16T04:33:43;2.58;;;1.08;;
30380;SDS011;17169;50.966;11.038;2022-10-16T04:36:46;2.00;;;1.00;;
30380;SDS011;17169;50.966;11.038;2022-10-16T04:39:49;1.70;;;0.95;;
30380;SDS011;17169;50.966;11.038;2022-10-16T04:42:52;2.03;;;0.90;;
30380;SDS011;17169;50.966;11.038;2022-10-16T04:45:54;2.33;;;1.05;;
30380;SDS011;17169;50.966;11.038;2022-10-16T04:48:58;2.00;;;1.20;;
30380;SDS011;17169;50.966;11.038;2022-10-16T04:52:00;3.15;;;0.90;;
30380;SDS011;17169;50.966;11.038;2022-10-16T04:55:03;3.20;;;1.10;;
30380;SDS011;17169;50.966;11.038;2022-10-16T04:58:06;1.48;;;1.10;;
30380;SDS011;17169;50.966;11.038;2022-10-16T05:01:09;2.15;;;1.00;;
30380;SDS011;17169;50.966;11.038;2022-10-16T05:04:12;3.90;;;1.13;;
30380;SDS011;17169;50.966;11.038;2022-10-16T05:07:15;2.73;;;1.57;;
30380;SDS011;17169;50.966;11.038;2022-10-16T05:10:18;2.28;;;1.10;;
30380;SDS011;17169;50.966;11.038;2022-10-16T05:13:20;1.67;;;1.00;;
30380;SDS011;17169;50.966;11.038;2022-10-16T05:16:23;2.10;;;1.00;;
30380;SDS011;17169;50.966;11.038;2022-10-16T05:19:27;1.65;;;1.10;;
30380;SDS011;17169;50.966;11.038;2022-10-16T05:22:29;3.03;;;1.13;;
30380;SDS011;17169;50.966;11.038;2022-10-16T05:25:32;2.40;;;1.40;;
30380;SDS011;17169;50.966;11.038;2022-10-16T05:28:34;3.03;;;1.58;;
30380;SDS011;17169;50.966;11.038;2022-10-16T05:31:36;5.28;;;1.20;;
30380;SDS011;17169;50.966;11.038;2022-10-16T05:34:40;1.48;;;0.95;;
30380;SDS011;17169;50.966;11.038;2022-10-16T05:37:43;3.67;;;1.35;;
30380;SDS011;17169;50.966;11.038;2022-10-16T05:40:50;3.55;;;1.10;;
30380;SDS011;17169;50.966;11.038;2022-10-16T05:43:53;1.70;;;1.20;;
30380;SDS011;17169;50.966;11.038;2022-10-16T05:46:55;3.30;;;1.10;;
30380;SDS011;17169;50.966;11.038;2022-10-16T05:49:59;1.92;;;0.80;;
30380;SDS011;17169;50.966;11.038;2022-10-16T05:53:01;2.20;;;1.30;;
30380;SDS011;17169;50.966;11.038;2022-10-16T05:56:04;5.13;;;1.27;;
30380;SDS011;17169;50.966;11.038;2022-10-16T05:59:07;2.00;;;1.30;;
30380;SDS011;17169;50.966;11.038;2022-10-16T06:02:10;4.47;;;2.13;;
30380;SDS011;17169;50.966;11.038;2022-10-16T06:05:15;20.25;;;12.43;;
30380;SDS011;17169;50.966;11.038;2022-10-16T06:08:18;9.35;;;5.43;;
30380;SDS011;17169;50.966;11.038;2022-10-16T06:11:22;3.50;;;2.05;;
30380;SDS011;17169;50.966;11.038;2022-10-16T06:14:27;2.25;;;1.50;;
30380;SDS011;17169;50.966;11.038;2022-10-16T06:17:29;11.32;;;2.83;;
30380;SDS011;17169;50.966;11.038;2022-10-16T06:20:33;1.63;;;1.05;;
30380;SDS011;17169;50.966;11.038;2022-10-16T06:23:36;2.78;;;1.95;;
30380;SDS011;17169;50.966;11.038;2022-10-16T06:26:38;6.07;;;1.42;;
30380;SDS011;17169;50.966;11.038;2022-10-16T06:29:40;2.22;;;0.90;;
30380;SDS011;17169;50.966;11.038;2022-10-16T06:32:43;1.60;;;1.00;;
30380;SDS011;17169;50.966;11.038;2022-10-16T06:35:47;1.52;;;1.08;;
30380;SDS011;17169;50.966;11.038;2022-10-16T06:38:49;5.28;;;2.20;;
30380;SDS011;17169;50.966;11.038;2022-10-16T06:41:51;1.55;;;0.82;;
30380;SDS011;17169;50.966;11.038;2022-10-16T06:44:54;1.15;;;0.80;;
30380;SDS011;17169;50.966;11.038;2022-10-16T06:47:56;3.25;;;0.98;;
30380;SDS011;17169;50.966;11.038;2022-10-16T06:51:01;1.05;;;0.70;;
30380;SDS011;17169;50.966;11.038;2022-10-16T06:54:05;0.90;;;0.70;;
30380;SDS011;17169;50.966;11.038;2022-10-16T06:57:07;3.42;;;0.77;;
30380;SDS011;17169;50.966;11.038;2022-10-16T07:00:09;1.23;;;0.63;;
30380;SDS011;17169;50.966;11.038;2022-10-16T07:03:12;0.73;;;0.50;;
30380;SDS011;17169;50.966;11.038;2022-10-16T07:06:19;0.75;;;0.60;;
30380;SDS011;17169;50.966;11.038;2022-10-16T07:09:23;1.25;;;0.80;;
30380;SDS011;17169;50.966;11.038;2022-10-16T07:12:26;1.35;;;0.77;;
30380;SDS011;17169;50.966;11.038;2022-10-16T07:15:28;1.38;;;0.73;;
30380;SDS011;17169;50.966;11.038;2022-10-16T07:18:31;1.15;;;0.70;;
30380;SDS011;17169;50.966;11.038;2022-10-16T07:21:34;0.90;;;0.70;;
30380;SDS011;17169;50.966;11.038;2022-10-16T07:24:37;1.20;;;0.60;;
30380;SDS011;17169;50.966;11.038;2022-10-16T07:27:39;2.15;;;0.80;;
30380;SDS011;17169;50.966;11.038;2022-10-16T07:30:41;1.20;;;0.70;;
30380;SDS011;17169;50.966;11.038;2022-10-16T07:33:44;0.85;;;0.60;;
30380;SDS011;17169;50.966;11.038;2022-10-16T07:36:50;2.47;;;0.68;;
30380;SDS011;17169;50.966;11.038;2022-10-16T07:39:52;0.50;;;0.50;;
30380;SDS011;17169;50.966;11.038;2022-10-16T07:42:54;0.70;;;0.50;;
30380;SDS011;17169;50.966;11.038;2022-10-16T07:45:57;0.43;;;0.40;;
30380;SDS011;17169;50.966;11.038;2022-10-16T07:48:59;0.93;;;0.63;;
30380;SDS011;17169;50.966;11.038;2022-10-16T07:52:03;2.75;;;0.60;;
30380;SDS011;17169;50.966;11.038;2022-10-16T07:55:06;1.40;;;0.60;;
30380;SDS011;17169;50.966;11.038;2022-10-16T07:58:09;2.53;;;0.70;;
30380;SDS011;17169;50.966;11.038;2022-10-16T08:01:11;0.90;;;0.70;;
30380;SDS011;17169;50.966;11.038;2022-10-16T08:04:15;1.15;;;0.60;;
30380;SDS011;17169;50.966;11.038;2022-10-16T08:07:19;0.65;;;0.50;;
30380;SDS011;17169;50.966;11.038;2022-10-16T08:10:22;0.98;;;0.55;;
30380;SDS011;17169;50.966;11.038;2022-10-16T08:13:25;1.52;;;0.63;;
30380;SDS011;17169;50.966;11.038;2022-10-16T08:16:28;0.55;;;0.55;;
30380;SDS011;17169;50.966;11.038;2022-10-16T08:19:30;0.80;;;0.63;;
30380;SDS011;17169;50.966;11.038;2022-10-16T08:22:36;3.65;;;0.77;;
30380;SDS011;17169;50.966;11.038;2022-10-16T08:25:38;5.20;;;0.80;;
30380;SDS011;17169;50.966;11.038;2022-10-16T08:28:41;0.60;;;0.52;;
30380;SDS011;17169;50.966;11.038;2022-10-16T08:31:43;0.40;;;0.40;;
30380;SDS011;17169;50.966;11.038;2022-10-16T08:34:46;1.65;;;0.50;;
30380;SDS011;17169;50.966;11.038;2022-10-16T08:37:50;2.90;;;0.90;;
30380;SDS011;17169;50.966;11.038;2022-10-16T08:40:52;2.65;;;0.90;;
30380;SDS011;17169;50.966;11.038;2022-10-16T08:44:07;3.42;;;0.75;;
30380;SDS011;17169;50.966;11.038;2022-10-16T08:47:25;1.30;;;0.80;;
30380;SDS011;17169;50.966;11.038;2022-10-16T08:50:32;2.10;;;0.90;;
30380;SDS011;17169;50.966;11.038;2022-10-16T08:53:41;3.50;;;0.65;;
30380;SDS011;17169;50.966;11.038;2022-10-16T08:56:47;1.27;;;0.77;;
30380;SDS011;17169;50.966;11.038;2022-10-16T08:59:50;1.75;;;0.70;;
30380;SDS011;17169;50.966;11.038;2022-10-16T09:02:53;0.75;;;0.68;;
30380;SDS011;17169;50.966;11.038;2022-10-16T09:06:08;1.02;;;0.80;;
30380;SDS011;17169;50.966;11.038;2022-10-16T09:09:27;0.90;;;0.70;;
30380;SDS011;17169;50.966;11.038;2022-10-16T09:12:36;1.67;;;0.80;;
30380;SDS011;17169;50.966;11.038;2022-10-16T09:15:44;0.77;;;0.70;;
30380;SDS011;17169;50.966;11.038;2022-10-16T09:18:53;2.30;;;0.70;;
30380;SDS011;17169;50.966;11.038;2022-10-16T09:22:01;1.90;;;0.68;;
30380;SDS011;17169;50.966;11.038;2022-10-16T09:25:14;1.35;;;0.80;;
30380;SDS011;17169;50.966;11.038;2022-10-16T09:28:18;2.13;;;1.17;;
30380;SDS011;17169;50.966;11.038;2022-10-16T09:31:21;1.05;;;0.80;;
30380;SDS011;17169;50.966;11.038;2022-10-16T09:34:25;1.73;;;1.10;;
30380;SDS011;17169;50.966;11.038;2022-10-16T09:37:31;1.45;;;1.05;;
30380;SDS011;17169;50.966;11.038;2022-10-16T09:40:35;1.55;;;0.90;;
30380;SDS011;17169;50.966;11.038;2022-10-16T09:43:40;0.80;;;0.70;;
30380;SDS011;17169;50.966;11.038;2022-10-16T09:46:48;2.65;;;0.95;;
30380;SDS011;17169;50.966;11.038;2022-10-16T09:49:50;2.25;;;0.98;;
30380;SDS011;17169;50.966;11.038;2022-10-16T09:53:03;3.30;;;0.93;;
30380;SDS011;17169;50.966;11.038;2022-10-16T09:56:09;1.55;;;0.98;;
30380;SDS011;17169;50.966;11.038;2022-10-16T09:59:14;2.53;;;1.30;;
30380;SDS011;17169;50.966;11.038;2022-10-16T10:02:18;5.80;;;0.90;;
30380;SDS011;17169;50.966;11.038;2022-10-16T10:05:24;1.90;;;1.00;;
30380;SDS011;17169;50.966;11.038;2022-10-16T10:08:29;1.35;;;0.80;;
30380;SDS011;17169;50.966;11.038;2022-10-16T10:11:43;0.95;;;0.70;;
30380;SDS011;17169;50.966;11.038;2022-10-16T10:14:48;1.58;;;0.73;;
30380;SDS011;17169;50.966;11.038;2022-10-16T10:17:53;1.33;;;0.90;;
30380;SDS011;17169;50.966;11.038;2022-10-16T10:20:57;3.33;;;0.98;;
30380;SDS011;17169;50.966;11.038;2022-10-16T10:24:01;6.72;;;0.80;;
30380;SDS011;17169;50.966;11.038;2022-10-16T10:27:09;1.83;;;0.70;;
30380;SDS011;17169;50.966;11.038;2022-10-16T10:30:19;0.68;;;0.60;;
30380;SDS011;17169;50.966;11.038;2022-10-16T10:33:25;0.93;;;0.55;;
30380;SDS011;17169;50.966;11.038;2022-10-16T10:36:34;1.25;;;0.70;;
30380;SDS011;17169;50.966;11.038;2022-10-16T10:39:39;0.98;;;0.75;;
30380;SDS011;17169;50.966;11.038;2022-10-16T10:42:47;2.03;;;0.80;;
30380;SDS011;17169;50.966;11.038;2022-10-16T10:45:58;2.60;;;1.00;;
30380;SDS011;17169;50.966;11.038;2022-10-16T10:49:07;1.23;;;0.85;;
30380;SDS011;17169;50.966;11.038;2022-10-16T10:55:39;1.40;;;0.80;;
30380;SDS011;17169;50.966;11.038;2022-10-16T10:59:04;1.92;;;1.05;;
30380;SDS011;17169;50.966;11.038;2022-10-16T11:02:18;0.90;;;0.60;;
30380;SDS011;17169;50.966;11.038;2022-10-16T11:05:31;1.50;;;0.68;;
30380;SDS011;17169;50.966;11.038;2022-10-16T11:08:41;0.77;;;0.60;;
30380;SDS011;17169;50.966;11.038;2022-10-16T11:11:47;2.55;;;0.73;;
30380;SDS011;17169;50.966;11.038;2022-10-16T11:14:55;1.63;;;0.88;;
30380;SDS011;17169;50.966;11.038;2022-10-16T11:18:04;3.28;;;0.95;;
30380;SDS011;17169;50.966;11.038;2022-10-16T11:21:10;1.60;;;1.00;;
30380;SDS011;17169;50.966;11.038;2022-10-16T11:24:16;1.63;;;0.80;;
30380;SDS011;17169;50.966;11.038;2022-10-16T11:27:26;1.95;;;1.00;;
30380;SDS011;17169;50.966;11.038;2022-10-16T11:30:40;2.65;;;0.85;;
30380;SDS011;17169;50.966;11.038;2022-10-16T11:33:47;2.45;;;1.00;;
30380;SDS011;17169;50.966;11.038;2022-10-16T11:36:57;2.95;;;1.05;;
30380;SDS011;17169;50.966;11.038;2022-10-16T11:40:05;2.72;;;1.10;;
30380;SDS011;17169;50.966;11.038;2022-10-16T11:43:22;2.78;;;1.70;;
30380;SDS011;17169;50.966;11.038;2022-10-16T11:46:29;2.05;;;1.00;;
30380;SDS011;17169;50.966;11.038;2022-10-16T11:49:36;3.95;;;1.10;;
30380;SDS011;17169;50.966;11.038;2022-10-16T11:52:40;1.88;;;1.10;;
30380;SDS011;17169;50.966;11.038;2022-10-16T11:55:48;3.63;;;1.30;;
30380;SDS011;17169;50.966;11.038;2022-10-16T11:58:54;1.70;;;1.00;;
30380;SDS011;17169;50.966;11.038;2022-10-16T12:02:07;2.65;;;1.20;;
30380;SDS011;17169;50.966;11.038;2022-10-16T12:05:29;1.55;;;0.90;;
30380;SDS011;17169;50.966;11.038;2022-10-16T12:08:37;1.35;;;0.80;;
30380;SDS011;17169;50.966;11.038;2022-10-16T12:11:40;1.48;;;0.85;;
30380;SDS011;17169;50.966;11.038;2022-10-16T12:14:42;1.83;;;0.82;;
30380;SDS011;17169;50.966;11.038;2022-10-16T12:17:47;0.93;;;0.90;;
30380;SDS011;17169;50.966;11.038;2022-10-16T12:20:54;3.28;;;0.90;;
30380;SDS011;17169;50.966;11.038;2022-10-16T12:24:00;5.93;;;1.10;;
30380;SDS011;17169;50.966;11.038;2022-10-16T12:27:05;2.20;;;0.77;;
30380;SDS011;17169;50.966;11.038;2022-10-16T12:30:22;3.55;;;0.90;;
30380;SDS011;17169;50.966;11.038;2022-10-16T12:33:28;2.28;;;0.90;;
30380;SDS011;17169;50.966;11.038;2022-10-16T12:36:32;2.17;;;1.30;;
30380;SDS011;17169;50.966;11.038;2022-10-16T12:39:36;1.52;;;0.82;;
30380;SDS011;17169;50.966;11.038;2022-10-16T12:42:39;1.42;;;1.02;;
30380;SDS011;17169;50.966;11.038;2022-10-16T12:45:41;1.27;;;0.77;;
30380;SDS011;17169;50.966;11.038;2022-10-16T12:48:46;2.10;;;0.90;;
30380;SDS011;17169;50.966;11.038;2022-10-16T12:51:49;1.50;;;0.70;;
30380;SDS011;17169;50.966;11.038;2022-10-16T12:54:51;1.27;;;0.70;;
30380;SDS011;17169;50.966;11.038;2022-10-16T12:58:02;2.17;;;0.98;;
30380;SDS011;17169;50.966;11.038;2022-10-16T13:01:19;2.35;;;0.80;;
30380;SDS011;17169;50.966;11.038;2022-10-16T13:04:39;1.45;;;0.80;;
30380;SDS011;17169;50.966;11.038;2022-10-16T13:07:50;1.25;;;0.60;;
30380;SDS011;17169;50.966;11.038;2022-10-16T13:11:02;1.58;;;0.80;;
30380;SDS011;17169;50.966;11.038;2022-10-16T13:14:16;0.52;;;0.50;;
30380;SDS011;17169;50.966;11.038;2022-10-16T13:17:35;1.48;;;0.82;;
30380;SDS011;17169;50.966;11.038;2022-10-16T13:20:51;1.23;;;0.80;;
30380;SDS011;17169;50.966;11.038;2022-10-16T13:24:08;1.20;;;0.80;;
30380;SDS011;17169;50.966;11.038;2022-10-16T13:27:22;1.10;;;0.75;;
30380;SDS011;17169;50.966;11.038;2022-10-16T13:30:31;5.30;;;1.10;;
30380;SDS011;17169;50.966;11.038;2022-10-16T13:33:37;0.95;;;0.77;;
30380;SDS011;17169;50.966;11.038;2022-10-16T13:36:44;2.67;;;1.30;;
30380;SDS011;17169;50.966;11.038;2022-10-16T13:39:50;0.90;;;0.80;;
30380;SDS011;17169;50.966;11.038;2022-10-16T13:43:03;1.50;;;0.80;;
30380;SDS011;17169;50.966;11.038;2022-10-16T13:46:06;1.92;;;0.80;;
30380;SDS011;17169;50.966;11.038;2022-10-16T13:49:14;0.85;;;0.70;;
30380;SDS011;17169;50.966;11.038;2022-10-16T13:52:19;1.75;;;0.80;;
30380;SDS011;17169;50.966;11.038;2022-10-16T13:55:22;0.85;;;0.60;;
30380;SDS011;17169;50.966;11.038;2022-10-16T13:58:25;1.00;;;0.60;;
30380;SDS011;17169;50.966;11.038;2022-10-16T14:01:28;0.68;;;0.68;;
30380;SDS011;17169;50.966;11.038;2022-10-16T14:04:32;0.75;;;0.70;;
30380;SDS011;17169;50.966;11.038;2022-10-16T14:07:36;0.93;;;0.68;;
30380;SDS011;17169;50.966;11.038;2022-10-16T14:10:39;1.38;;;0.80;;
30380;SDS011;17169;50.966;11.038;2022-10-16T14:13:43;0.90;;;0.70;;
30380;SDS011;17169;50.966;11.038;2022-10-16T14:16:47;0.85;;;0.68;;
30380;SDS011;17169;50.966;11.038;2022-10-16T14:19:50;1.15;;;0.60;;
30380;SDS011;17169;50.966;11.038;2022-10-16T14:22:59;1.17;;;0.77;;
30380;SDS011;17169;50.966;11.038;2022-10-16T14:26:12;1.05;;;0.50;;
30380;SDS011;17169;50.966;11.038;2022-10-16T14:29:18;1.10;;;0.70;;
30380;SDS011;17169;50.966;11.038;2022-10-16T14:32:23;2.47;;;1.17;;
30380;SDS011;17169;50.966;11.038;2022-10-16T14:35:27;0.85;;;0.63;;
30380;SDS011;17169;50.966;11.038;2022-10-16T14:38:33;1.95;;;0.90;;
30380;SDS011;17169;50.966;11.038;2022-10-16T14:41:40;0.95;;;0.70;;
30380;SDS011;17169;50.966;11.038;2022-10-16T14:44:45;1.75;;;1.00;;
30380;SDS011;17169;50.966;11.038;2022-10-16T14:47:50;1.57;;;1.00;;
30380;SDS011;17169;50.966;11.038;2022-10-16T14:50:54;2.22;;;1.00;;
30380;SDS011;17169;50.966;11.038;2022-10-16T14:53:58;0.88;;;0.60;;
30380;SDS011;17169;50.966;11.038;2022-10-16T14:57:02;1.30;;;0.95;;
30380;SDS011;17169;50.966;11.038;2022-10-16T15:00:08;2.47;;;1.02;;
30380;SDS011;17169;50.966;11.038;2022-10-16T15:03:16;1.30;;;1.00;;
30380;SDS011;17169;50.966;11.038;2022-10-16T15:12:27;2.17;;;1.40;;
30380;SDS011;17169;50.966;11.038;2022-10-16T15:15:36;2.17;;;1.30;;
30380;SDS011;17169;50.966;11.038;2022-10-16T15:18:39;1.80;;;0.98;;
30380;SDS011;17169;50.966;11.038;2022-10-16T15:21:42;2.75;;;1.40;;
30380;SDS011;17169;50.966;11.038;2022-10-16T15:24:46;2.33;;;1.00;;
30380;SDS011;17169;50.966;11.038;2022-10-16T15:27:48;3.50;;;2.03;;
30380;SDS011;17169;50.966;11.038;2022-10-16T15:30:51;2.47;;;1.30;;
30380;SDS011;17169;50.966;11.038;2022-10-16T15:33:54;2.17;;;1.20;;
30380;SDS011;17169;50.966;11.038;2022-10-16T15:37:02;2.05;;;0.90;;
30380;SDS011;17169;50.966;11.038;2022-10-16T15:40:07;4.10;;;1.30;;
30380;SDS011;17169;50.966;11.038;2022-10-16T15:43:10;1.50;;;0.95;;
30380;SDS011;17169;50.966;11.038;2022-10-16T15:46:13;2.88;;;1.52;;
30380;SDS011;17169;50.966;11.038;2022-10-16T15:49:19;3.33;;;1.30;;
30380;SDS011;17169;50.966;11.038;2022-10-16T15:52:21;2.15;;;1.20;;
30380;SDS011;17169;50.966;11.038;2022-10-16T15:55:25;3.95;;;1.40;;
30380;SDS011;17169;50.966;11.038;2022-10-16T15:58:27;1.48;;;1.10;;
30380;SDS011;17169;50.966;11.038;2022-10-16T16:01:31;2.70;;;1.10;;
30380;SDS011;17169;50.966;11.038;2022-10-16T16:04:34;2.33;;;1.10;;
30380;SDS011;17169;50.966;11.038;2022-10-16T16:07:37;3.30;;;1.65;;
30380;SDS011;17169;50.966;11.038;2022-10-16T16:10:41;3.92;;;1.70;;
30380;SDS011;17169;50.966;11.038;2022-10-16T16:13:44;4.20;;;2.10;;
30380;SDS011;17169;50.966;11.038;2022-10-16T16:16:46;4.20;;;2.20;;
30380;SDS011;17169;50.966;11.038;2022-10-16T16:19:48;6.78;;;3.42;;
30380;SDS011;17169;50.966;11.038;2022-10-16T16:22:51;3.78;;;2.05;;
30380;SDS011;17169;50.966;11.038;2022-10-16T16:26:04;9.90;;;4.13;;
30380;SDS011;17169;50.966;11.038;2022-10-16T16:29:08;38.33;;;22.60;;
30380;SDS011;17169;50.966;11.038;2022-10-16T16:32:13;29.25;;;17.98;;
30380;SDS011;17169;50.966;11.038;2022-10-16T16:35:15;14.05;;;8.65;;
30380;SDS011;17169;50.966;11.038;2022-10-16T16:38:17;13.85;;;6.25;;
30380;SDS011;17169;50.966;11.038;2022-10-16T16:41:22;15.90;;;7.72;;
30380;SDS011;17169;50.966;11.038;2022-10-16T16:44:26;13.38;;;7.85;;
30380;SDS011;17169;50.966;11.038;2022-10-16T16:47:28;15.40;;;7.38;;
30380;SDS011;17169;50.966;11.038;2022-10-16T16:50:34;9.07;;;5.13;;
30380;SDS011;17169;50.966;11.038;2022-10-16T16:53:36;9.43;;;5.35;;
30380;SDS011;17169;50.966;11.038;2022-10-16T16:56:40;8.32;;;3.92;;
30380;SDS011;17169;50.966;11.038;2022-10-16T16:59:44;7.50;;;4.20;;
30380;SDS011;17169;50.966;11.038;2022-10-16T17:02:47;7.50;;;3.92;;
30380;SDS011;17169;50.966;11.038;2022-10-16T17:05:56;10.68;;;4.85;;
30380;SDS011;17169;50.966;11.038;2022-10-16T17:09:00;9.25;;;3.78;;
30380;SDS011;17169;50.966;11.038;2022-10-16T17:12:05;5.22;;;3.20;;
30380;SDS011;17169;50.966;11.038;2022-10-16T17:15:08;7.93;;;3.20;;
30380;SDS011;17169;50.966;11.038;2022-10-16T17:18:10;5.68;;;3.47;;
30380;SDS011;17169;50.966;11.038;2022-10-16T17:21:13;5.85;;;3.28;;
30380;SDS011;17169;50.966;11.038;2022-10-16T17:24:15;9.13;;;3.58;;
30380;SDS011;17169;50.966;11.038;2022-10-16T17:27:20;5.32;;;2.97;;
30380;SDS011;17169;50.966;11.038;2022-10-16T17:30:23;7.40;;;3.97;;
30380;SDS011;17169;50.966;11.038;2022-10-16T17:33:25;7.45;;;3.80;;
30380;SDS011;17169;50.966;11.038;2022-10-16T17:36:28;10.40;;;4.32;;
30380;SDS011;17169;50.966;11.038;2022-10-16T17:39:33;7.65;;;3.75;;
30380;SDS011;17169;50.966;11.038;2022-10-16T17:42:37;10.00;;;4.43;;
30380;SDS011;17169;50.966;11.038;2022-10-16T17:45:39;7.60;;;4.78;;
30380;SDS011;17169;50.966;11.038;2022-10-16T17:48:42;9.65;;;5.35;;
30380;SDS011;17169;50.966;11.038;2022-10-16T17:51:48;10.23;;;5.70;;
30380;SDS011;17169;50.966;11.038;2022-10-16T17:54:51;10.60;;;6.38;;
30380;SDS011;17169;50.966;11.038;2022-10-16T17:57:55;13.13;;;6.47;;
30380;SDS011;17169;50.966;11.038;2022-10-16T18:00:58;11.30;;;5.43;;
30380;SDS011;17169;50.966;11.038;2022-10-16T18:04:01;10.20;;;6.22;;
30380;SDS011;17169;50.966;11.038;2022-10-16T18:07:06;9.85;;;5.63;;
30380;SDS011;17169;50.966;11.038;2022-10-16T18:10:09;11.57;;;5.88;;
30380;SDS011;17169;50.966;11.038;2022-10-16T18:13:13;10.77;;;6.20;;
30380;SDS011;17169;50.966;11.038;2022-10-16T18:16:15;10.37;;;5.90;;
30380;SDS011;17169;50.966;11.038;2022-10-16T18:19:18;15.15;;;8.68;;
30380;SDS011;17169;50.966;11.038;2022-10-16T18:22:20;18.90;;;9.52;;
30380;SDS011;17169;50.966;11.038;2022-10-16T18:25:23;19.75;;;10.35;;
30380;SDS011;17169;50.966;11.038;2022-10-16T18:28:27;20.05;;;11.48;;
30380;SDS011;17169;50.966;11.038;2022-10-16T18:31:30;20.33;;;11.73;;